Terminal Aerodrome Forecast
Issued by NWS Duluth, MN

Home | Current Version | Previous Version | Text Only | Print | Product List | Glossary On
Versions: 1 2 3 4 5 6 7 8 9 10 11 12 13 14 15 16 17
960
FTUS43 KDLH 132340
TAFINL
TAF
KINL 132340Z 1400/1424 13008KT P6SM BKN150
     FM141400 14008KT P6SM VCSH SCT025 OVC050
     FM141600 16009KT 5SM -SN SCT015 OVC025
     FM141900 17010KT 3SM -SN OVC015
     FM142100 17010KT 2SM -SN OVC012=

USA.gov is the U.S. government's official web portal to all federal, state and local government web resources and services.